Time;durP1;ratioP1;P1;durP2;ratioP2;P2;SDS_P1;SDS_P2;PMS_P1;PMS_P2;Temp;Humidity;BMP_temperature;BMP_pressure;BME280_temperature;BME280_humidity;BME280_pressure;Samples;Min_cycle;Max_cycle;Signal;HPM_P1;HPM_P2
2022/05/18 00:01:59;;;;;;;8.68;6.00;;;;;;;18.53;77.41;100017.16;4991376;28;20030;-76
2022/05/18 00:04:25;;;;;;;8.60;6.43;;;;;;;18.35;79.02;100018.09;4992002;28;20030;-80
2022/05/18 00:06:51;;;;;;;8.27;6.28;;;;;;;18.37;78.02;99958.84;4974569;28;20488;-76
2022/05/18 00:09:16;;;;;;;9.60;7.10;;;;;;;18.67;78.90;100054.59;4991772;28;20065;-78
2022/05/18 00:11:42;;;;;;;9.43;7.10;;;;;;;18.48;79.75;100061.63;4991543;28;20113;-81
2022/05/18 00:14:07;;;;;;;8.32;6.50;;;;;;;17.86;78.79;99894.50;4991633;28;20073;-78
2022/05/18 00:16:33;;;;;;;10.82;7.05;;;;;;;18.80;78.78;100036.25;4991318;28;20042;-82
2022/05/18 00:18:58;;;;;;;9.55;7.20;;;;;;;17.65;80.49;99924.13;4991401;28;20030;-78
2022/05/18 00:21:25;;;;;;;9.40;7.18;;;;;;;17.60;81.95;99968.50;4991623;28;20477;-76
2022/05/18 00:23:51;;;;;;;10.80;7.25;;;;;;;17.88;82.17;99996.34;4991522;28;20062;-79
2022/05/18 00:26:17;;;;;;;8.82;6.82;;;;;;;17.78;81.56;99966.75;4990832;28;20046;-78
2022/05/18 00:28:43;;;;;;;8.02;7.13;;;;;;;18.11;80.35;99975.47;4991392;28;20468;-79
2022/05/18 00:31:12;;;;;;;9.90;7.15;;;;;;;18.00;79.52;99906.72;4991238;28;20026;-79
2022/05/18 00:33:37;;;;;;;9.30;7.38;;;;;;;18.32;79.23;99944.91;4991311;28;20401;-79
2022/05/18 00:36:03;;;;;;;10.23;7.72;;;;;;;18.26;79.32;99940.59;4991268;28;20034;-84
2022/05/18 00:38:29;;;;;;;8.98;8.02;;;;;;;18.02;80.49;99950.22;4991242;28;20477;-80
2022/05/18 00:40:55;;;;;;;14.55;8.93;;;;;;;18.44;82.24;100036.34;4991608;28;20420;-83
2022/05/18 00:43:29;;;;;;;19.58;16.48;;;;;;;18.50;81.75;100044.16;4991062;28;20030;-81
2022/05/18 00:45:56;;;;;;;21.23;19.00;;;;;;;18.81;81.66;100078.09;4991275;28;20026;-77
2022/05/18 00:48:22;;;;;;;22.85;20.52;;;;;;;18.01;82.21;99935.44;4949765;29;20415;-79
2022/05/18 00:50:49;;;;;;;23.60;20.98;;;;;;;18.71;81.26;100060.69;4950022;29;20102;-78
2022/05/18 00:53:23;;;;;;;16.52;14.85;;;;;;;19.04;80.71;100082.38;4950041;29;20075;-78
2022/05/18 00:55:54;;;;;;;18.45;16.48;;;;;;;19.15;79.86;100066.66;4949992;29;20840;-79
2022/05/18 00:58:39;;;;;;;20.08;17.98;;;;;;;19.35;79.17;100064.81;4949836;29;20126;-77
2022/05/18 01:01:04;;;;;;;16.63;14.38;;;;;;;18.80;79.22;99958.66;4949904;28;20545;-80
2022/05/18 01:03:37;;;;;;;14.32;12.02;;;;;;;18.82;79.25;99975.22;4949939;29;20043;-80
2022/05/18 01:06:10;;;;;;;12.68;10.63;;;;;;;19.42;80.50;100075.25;4949954;29;20035;-76
2022/05/18 01:08:59;;;;;;;10.10;8.75;;;;;;;18.68;81.19;99979.63;4949515;29;20411;-78
2022/05/18 01:11:25;;;;;;;12.10;8.07;;;;;;;19.40;80.89;100090.94;4950100;29;20530;-82
2022/05/18 01:13:51;;;;;;;11.20;7.95;;;;;;;18.75;79.90;99961.31;4949863;29;20050;-77
2022/05/18 01:16:18;;;;;;;11.82;8.32;;;;;;;18.94;79.92;100000.50;4949869;29;20402;-79
2022/05/18 01:18:44;;;;;;;10.73;8.60;;;;;;;18.50;79.99;99947.47;4959176;28;20053;-78
2022/05/18 01:21:09;;;;;;;8.85;8.00;;;;;;;18.90;79.81;100012.72;4990725;28;20030;-77
2022/05/18 01:24:11;;;;;;;11.15;8.35;;;;;;;19.18;79.89;100080.59;4990643;28;20034;-77
2022/05/18 01:26:42;;;;;;;9.60;7.95;;;;;;;19.19;79.73;100064.03;4990687;28;20034;-80
2022/05/18 01:29:09;;;;;;;9.45;8.32;;;;;;;19.31;80.30;100067.44;4990690;28;20057;-76
2022/05/18 01:31:52;;;;;;;9.02;8.13;;;;;;;19.35;79.99;100053.44;4990364;28;20023;-80
2022/05/18 01:34:23;;;;;;;10.35;8.85;;;;;;;19.23;81.02;100055.25;4971485;28;20070;-83
2022/05/18 01:36:49;;;;;;;9.43;8.25;;;;;;;19.10;80.98;100010.84;4971730;28;20027;-80
2022/05/18 01:39:42;;;;;;;12.02;8.52;;;;;;;19.14;81.01;100010.84;4957892;28;20505;-81
2022/05/18 01:42:38;;;;;;;13.50;8.10;;;;;;;19.43;80.75;100054.28;4958205;28;20421;-80
2022/05/18 01:45:04;;;;;;;10.23;7.72;;;;;;;19.32;81.49;100058.72;4975061;28;20486;-81
2022/05/18 01:47:35;;;;;;;14.32;8.30;;;;;;;19.07;81.81;100032.69;4978733;28;20390;-79
2022/05/18 01:50:03;;;;;;;9.52;8.55;;;;;;;19.16;81.89;100045.69;4994235;28;20073;-81
2022/05/18 01:52:28;;;;;;;9.35;8.35;;;;;;;18.98;82.77;100033.59;4993758;28;20037;-81
2022/05/18 01:54:54;;;;;;;8.90;8.07;;;;;;;18.54;83.61;100035.47;4994483;28;20034;-78
2022/05/18 01:57:19;;;;;;;10.88;9.40;;;;;;;18.19;85.43;100012.88;4994602;28;20030;-78
2022/05/18 01:59:45;;;;;;;11.60;10.40;;;;;;;18.25;85.90;100005.03;4994444;28;20088;-82
2022/05/18 02:02:12;;;;;;;10.50;9.25;;;;;;;18.39;85.39;100007.63;4994393;28;20511;-80
2022/05/18 02:04:39;;;;;;;13.43;9.50;;;;;;;18.31;84.79;99975.41;4994417;28;20116;-84
2022/05/18 02:07:04;;;;;;;10.95;9.38;;;;;;;18.39;84.51;99997.19;4994566;28;20026;-82
2022/05/18 02:09:30;;;;;;;15.43;9.85;;;;;;;18.42;85.10;99994.53;4994581;28;20039;-81
2022/05/18 02:11:57;;;;;;;12.15;9.90;;;;;;;18.18;84.75;99926.66;4994276;28;20397;-78
2022/05/18 02:14:23;;;;;;;10.40;8.75;;;;;;;18.56;84.58;99967.50;4994288;28;20030;-80
2022/05/18 02:16:49;;;;;;;9.15;8.05;;;;;;;18.74;83.78;99984.84;4994119;28;20018;-79
2022/05/18 02:19:16;;;;;;;10.38;8.23;;;;;;;18.07;83.07;99859.66;4994096;28;20492;-79
2022/05/18 02:21:42;;;;;;;11.05;8.70;;;;;;;18.92;82.81;99976.94;4994097;28;20398;-81
2022/05/18 02:24:08;;;;;;;10.50;9.35;;;;;;;18.94;82.70;99981.28;4994171;28;20113;-81
2022/05/18 02:26:33;;;;;;;12.07;9.98;;;;;;;18.68;83.58;99969.16;4993952;28;20080;-80
2022/05/18 02:28:59;;;;;;;11.98;9.85;;;;;;;18.78;84.29;99997.03;4993874;28;20112;-80
2022/05/18 02:31:25;;;;;;;12.20;9.50;;;;;;;18.51;84.94;99961.41;4993775;28;20030;-79
2022/05/18 02:33:50;;;;;;;13.30;9.80;;;;;;;18.62;85.37;100000.56;4993670;28;20034;-81
2022/05/18 02:36:16;;;;;;;15.43;9.27;;;;;;;18.65;85.97;100008.41;4993532;28;20110;-83
2022/05/18 02:38:42;;;;;;;12.80;10.40;;;;;;;18.31;87.13;99996.31;4993737;28;20455;-80
2022/05/18 02:41:09;;;;;;;12.27;10.15;;;;;;;18.46;86.99;100011.09;4994068;28;20030;-80
2022/05/18 02:43:38;;;;;;;15.10;10.70;;;;;;;18.42;87.00;100014.59;4994025;28;20033;-81
2022/05/18 02:46:11;;;;;;;11.75;10.52;;;;;;;18.36;87.90;100015.47;4976080;28;20125;-82
2022/05/18 02:48:37;;;;;;;11.48;10.13;;;;;;;18.25;88.67;100014.63;4992497;28;20448;-83
2022/05/18 02:51:05;;;;;;;12.38;10.35;;;;;;;18.09;89.07;99998.09;4993587;28;20047;-83
2022/05/18 02:53:31;;;;;;;12.20;10.52;;;;;;;18.09;89.50;100004.22;4993557;28;20026;-82
2022/05/18 02:56:05;;;;;;;12.02;9.85;;;;;;;17.97;89.78;99993.78;4993505;28;20057;-84
2022/05/18 02:58:36;;;;;;;12.80;10.75;;;;;;;18.08;90.41;100033.81;4993305;28;20029;-82
2022/05/18 03:01:08;;;;;;;12.93;10.13;;;;;;;17.95;90.53;100014.66;4960250;28;20073;-83
2022/05/18 03:03:34;;;;;;;13.85;10.15;;;;;;;18.03;91.31;100032.94;4975927;28;20400;-80
2022/05/18 03:06:03;;;;;;;14.52;10.07;;;;;;;17.95;90.91;100008.56;4993335;28;20362;-81
2022/05/18 03:08:29;;;;;;;13.90;9.70;;;;;;;18.14;90.81;100027.69;4993307;28;20035;-79
2022/05/18 03:10:54;;;;;;;12.77;10.05;;;;;;;18.23;90.31;100034.66;4993149;28;20046;-82
2022/05/18 03:13:20;;;;;;;10.57;9.32;;;;;;;18.19;90.28;100040.75;4992992;28;20049;-81
2022/05/18 03:15:47;;;;;;;10.15;9.00;;;;;;;18.26;89.56;100045.09;4992901;28;20064;-86
2022/05/18 03:18:14;;;;;;;12.38;9.75;;;;;;;18.24;89.14;100015.50;4993536;28;20026;-83
2022/05/18 03:23:36;;;;;;;10.20;8.90;;;;;;;18.36;88.77;100025.06;4992889;28;20102;-79
2022/05/18 03:26:11;;;;;;;11.52;9.10;;;;;;;18.40;88.37;100032.88;4992804;28;20030;-82
2022/05/18 03:28:38;;;;;;;10.63;8.80;;;;;;;18.58;88.25;100033.72;4992750;28;20105;-80
2022/05/18 03:31:04;;;;;;;11.35;9.48;;;;;;;18.75;87.53;100054.56;4992718;28;20026;-80
2022/05/18 03:33:51;;;;;;;10.88;9.43;;;;;;;18.74;87.69;100058.06;4992754;28;20057;-79
2022/05/18 03:36:18;;;;;;;10.13;8.95;;;;;;;18.58;87.86;100036.34;4951244;29;20039;-80
2022/05/18 03:38:45;;;;;;;10.18;9.18;;;;;;;18.51;87.55;100017.16;4951648;29;20406;-85
2022/05/18 03:41:11;;;;;;;11.32;8.95;;;;;;;18.66;87.79;100059.84;4951473;29;20043;-82
2022/05/18 03:43:37;;;;;;;11.23;10.05;;;;;;;18.45;87.57;100027.63;4951617;29;20050;-85
2022/05/18 03:46:03;;;;;;;12.18;8.90;;;;;;;18.81;88.46;100072.84;4951502;29;20126;-84
2022/05/18 03:48:29;;;;;;;11.88;9.20;;;;;;;18.89;87.40;100084.16;4951724;29;20041;-80
2022/05/18 03:50:57;;;;;;;10.95;9.32;;;;;;;18.95;87.00;100091.13;4934845;29;20054;-84
2022/05/18 03:53:23;;;;;;;12.00;9.15;;;;;;;18.70;87.18;100056.31;4951299;29;20044;-80
2022/05/18 03:55:49;;;;;;;12.32;9.32;;;;;;;18.35;87.32;100007.63;4951090;29;20114;-82
2022/05/18 03:58:14;;;;;;;12.13;8.90;;;;;;;18.90;87.32;100101.66;4935082;29;20466;-82
2022/05/18 04:00:42;;;;;;;12.57;8.93;;;;;;;18.89;87.63;100070.19;4951050;28;20041;-84
2022/05/18 04:03:09;;;;;;;14.73;9.73;;;;;;;18.75;87.30;100046.72;4951187;29;20034;-84
2022/05/18 04:05:37;;;;;;;11.20;9.45;;;;;;;18.72;87.76;100068.53;4951105;29;20035;-81
2022/05/18 04:08:02;;;;;;;12.02;9.38;;;;;;;18.84;87.21;100095.50;4962013;28;20046;-84
2022/05/18 04:10:28;;;;;;;11.73;9.27;;;;;;;18.73;87.81;100093.81;4970371;28;20043;-79
2022/05/18 04:12:54;;;;;;;13.57;9.45;;;;;;;18.66;87.71;100063.31;4972563;28;20022;-81
2022/05/18 04:15:19;;;;;;;12.32;9.05;;;;;;;18.82;87.58;100087.66;4970317;28;20031;-86
2022/05/18 04:17:46;;;;;;;13.65;9.55;;;;;;;18.90;87.13;100095.50;4972446;28;20061;-82
2022/05/18 04:20:18;;;;;;;11.65;9.32;;;;;;;18.74;87.33;100052.81;4971797;28;20034;-82
2022/05/18 04:22:44;;;;;;;17.75;10.15;;;;;;;18.80;87.44;100078.94;4952682;29;20406;-81
2022/05/18 04:25:12;;;;;;;17.38;9.50;;;;;;;18.99;87.65;100095.50;4953227;28;20035;-84
2022/05/18 04:27:37;;;;;;;11.20;9.00;;;;;;;18.84;87.74;100070.25;4952905;28;20027;-85
2022/05/18 04:30:04;;;;;;;12.93;9.20;;;;;;;18.72;87.21;100045.00;4952965;28;20110;-81
2022/05/18 04:32:30;;;;;;;11.52;8.80;;;;;;;18.76;87.62;100066.78;4952862;28;20082;-85
2022/05/18 04:34:55;;;;;;;11.00;8.30;;;;;;;18.77;87.96;100078.97;4952958;28;20035;-82
2022/05/18 04:37:21;;;;;;;14.10;8.57;;;;;;;18.82;89.84;100092.91;4952826;29;20077;-82
2022/05/18 04:39:46;;;;;;;9.55;8.52;;;;;;;18.24;91.27;100005.03;4951595;29;20035;-83
2022/05/18 04:42:13;;;;;;;11.63;8.50;;;;;;;18.43;92.50;100027.66;4952790;28;20398;-85
2022/05/18 04:44:40;;;;;;;10.90;8.15;;;;;;;18.59;93.00;100053.72;4952846;28;20039;-83
2022/05/18 04:47:05;;;;;;;9.50;7.80;;;;;;;18.85;93.67;100089.41;4952593;28;20497;-84
2022/05/18 04:49:32;;;;;;;11.13;8.25;;;;;;;18.99;93.43;100086.78;4967219;28;20031;-83
2022/05/18 04:51:59;;;;;;;11.98;8.10;;;;;;;19.05;92.42;100084.13;4970965;28;20121;-82
2022/05/18 04:54:24;;;;;;;11.32;7.60;;;;;;;19.19;91.32;100100.66;4972080;28;20445;-81
2022/05/18 04:56:50;;;;;;;10.27;8.05;;;;;;;19.23;90.47;100088.44;4971849;28;20031;-82
2022/05/18 04:59:16;;;;;;;9.88;7.28;;;;;;;18.91;89.41;100022.28;4973213;28;20038;-84
2022/05/18 05:01:43;;;;;;;11.02;6.15;;;;;;;18.71;84.98;99971.78;4991387;28;20424;-81
2022/05/18 05:04:09;;;;;;;11.55;6.85;;;;;;;19.51;85.91;100104.84;4991004;28;20092;-79
2022/05/18 05:06:37;;;;;;;10.38;6.60;;;;;;;19.48;84.56;100077.84;4991343;28;20026;-80
2022/05/18 05:09:03;;;;;;;9.00;6.55;;;;;;;19.49;86.32;100090.91;4991033;28;20034;-82
2022/05/18 05:11:29;;;;;;;11.23;6.70;;;;;;;19.36;85.74;100070.91;4991796;28;20058;-81
2022/05/18 05:13:54;;;;;;;10.30;6.80;;;;;;;19.52;86.76;100098.72;4997638;28;20069;-81
2022/05/18 05:16:20;;;;;;;8.00;5.75;;;;;;;19.50;87.65;100100.50;4997419;28;20026;-82
2022/05/18 05:18:45;;;;;;;6.25;3.97;;;;;;;19.18;84.08;100074.50;4997458;28;20081;-82
2022/05/18 05:21:11;;;;;;;5.20;4.20;;;;;;;19.49;85.46;100110.97;4997503;28;20033;-80
2022/05/18 05:23:36;;;;;;;5.78;3.80;;;;;;;19.44;83.45;100092.69;4998000;28;20089;-80
2022/05/18 05:26:03;;;;;;;4.97;3.50;;;;;;;19.31;84.28;100078.78;4980118;28;20026;-81
2022/05/18 05:28:29;;;;;;;5.57;3.70;;;;;;;19.49;84.27;100072.56;4964215;28;20471;-82
2022/05/18 05:30:54;;;;;;;7.93;3.80;;;;;;;19.64;82.64;100105.66;4997457;28;20031;-85
2022/05/18 05:33:20;;;;;;;5.50;4.10;;;;;;;19.40;84.41;100072.63;4997313;28;20045;-81
2022/05/18 05:35:45;;;;;;;7.30;3.35;;;;;;;19.45;82.84;100064.75;4997496;28;20112;-83
2022/05/18 05:38:12;;;;;;;5.13;3.55;;;;;;;19.79;84.55;100111.66;4997414;28;20393;-80
2022/05/18 05:40:39;;;;;;;7.38;3.75;;;;;;;19.75;84.05;100108.22;4997677;28;20031;-82
2022/05/18 05:43:10;;;;;;;5.90;3.50;;;;;;;19.47;84.24;100074.31;4979826;28;20026;-82
2022/05/18 05:45:36;;;;;;;5.75;3.80;;;;;;;19.83;84.36;100116.03;4997254;28;20034;-83
2022/05/18 05:48:03;;;;;;;7.15;4.22;;;;;;;19.99;85.07;100111.56;4997456;28;20128;-80
2022/05/18 05:50:30;;;;;;;5.68;4.03;;;;;;;19.21;83.27;99975.03;4997286;28;20066;-86
2022/05/18 05:52:57;;;;;;;4.65;3.92;;;;;;;19.78;83.26;100081.97;4962760;28;20070;-84
2022/05/18 05:55:23;;;;;;;5.60;4.30;;;;;;;20.04;85.19;100125.50;4997285;28;20031;-80
2022/05/18 05:57:48;;;;;;;4.40;3.65;;;;;;;20.08;83.11;100132.44;4997087;28;20018;-82
2022/05/18 06:00:14;;;;;;;5.00;3.72;;;;;;;20.03;83.64;100126.38;4997083;28;20034;-79
2022/05/18 06:02:40;;;;;;;5.47;3.97;;;;;;;20.12;83.96;100136.78;4997406;28;20034;-81
2022/05/18 06:05:06;;;;;;;6.30;4.03;;;;;;;20.24;83.37;100137.56;4979904;28;20026;-82
2022/05/18 06:07:32;;;;;;;5.07;3.83;;;;;;;20.38;81.42;100127.84;4997113;28;20026;-81
2022/05/18 06:09:58;;;;;;;4.95;3.70;;;;;;;20.49;83.39;100114.63;4997267;28;20497;-84
2022/05/18 06:12:25;;;;;;;5.20;3.33;;;;;;;20.66;80.58;100135.44;4997233;28;20057;-82
2022/05/18 06:14:50;;;;;;;5.65;3.50;;;;;;;20.64;78.69;100106.59;4996951;28;20116;-80
2022/05/18 06:17:16;;;;;;;4.45;3.00;;;;;;;20.57;76.99;100104.91;4997118;28;20117;-83
2022/05/18 06:19:41;;;;;;;5.80;3.53;;;;;;;20.94;80.16;100122.06;4997138;28;20026;-82
2022/05/18 06:22:07;;;;;;;6.03;3.40;;;;;;;21.15;78.52;100129.69;4996773;28;20092;-81
2022/05/18 06:24:32;;;;;;;5.75;3.55;;;;;;;21.19;76.63;100129.66;4993406;28;20026;-81
2022/05/18 06:26:59;;;;;;;5.95;3.53;;;;;;;21.07;77.54;100102.69;4994094;28;20045;-80
2022/05/18 06:29:25;;;;;;;3.97;3.17;;;;;;;21.38;75.81;100146.91;4993749;28;20042;-83
2022/05/18 06:31:50;;;;;;;3.30;2.90;;;;;;;21.37;74.74;100134.69;4993894;28;20026;-82
2022/05/18 06:34:16;;;;;;;5.32;3.30;;;;;;;21.41;74.40;100125.84;4993951;28;20053;-83
2022/05/18 06:36:42;;;;;;;5.85;3.25;;;;;;;21.54;75.41;100144.09;4993779;28;20081;-85
2022/05/18 06:39:08;;;;;;;5.05;2.95;;;;;;;21.56;72.92;100145.81;4993732;28;20034;-87
2022/05/18 06:41:35;;;;;;;8.02;3.25;;;;;;;21.59;72.56;100150.16;4994077;28;20385;-84
2022/05/18 06:44:02;;;;;;;8.73;3.17;;;;;;;21.65;71.48;100134.31;4993497;28;20428;-84
2022/05/18 06:46:30;;;;;;;5.53;2.70;;;;;;;21.87;71.68;100155.03;4993817;28;20545;-87
2022/05/18 06:48:56;;;;;;;4.97;2.90;;;;;;;21.85;72.71;100136.66;4993632;28;20034;-83
2022/05/18 06:51:29;;;;;;;4.80;3.00;;;;;;;21.94;73.61;100151.41;4993662;28;20050;-85
2022/05/18 06:53:56;;;;;;;3.67;2.28;;;;;;;21.70;69.38;100105.38;4979499;28;20502;-83
2022/05/18 06:56:27;;;;;;;5.38;2.88;;;;;;;21.87;68.92;100145.41;4975111;28;20027;-82
2022/05/18 06:58:53;;;;;;;3.67;2.42;;;;;;;21.75;69.64;100109.66;4973069;28;20394;-80
2022/05/18 07:01:19;;;;;;;7.65;3.13;;;;;;;21.94;68.44;100149.69;4972996;28;21540;-80
2022/05/18 07:03:45;;;;;;;4.20;2.90;;;;;;;22.13;69.32;100158.13;4972969;28;20077;-83
2022/05/18 07:06:12;;;;;;;4.07;2.60;;;;;;;22.06;68.74;100145.13;4974405;28;20491;-79
2022/05/18 07:08:38;;;;;;;5.53;3.00;;;;;;;21.98;69.63;100130.31;4974528;28;20109;-81
2022/05/18 07:11:04;;;;;;;3.25;2.63;;;;;;;22.09;68.70;100159.09;4972632;28;20753;-85
2022/05/18 07:13:39;;;;;;;4.72;2.83;;;;;;;22.22;66.76;100164.13;4977398;28;20109;-80
2022/05/18 07:16:05;;;;;;;4.60;2.60;;;;;;;22.25;68.52;100162.31;4991857;28;20034;-81
2022/05/18 07:18:32;;;;;;;4.55;2.60;;;;;;;22.38;65.72;100155.13;4992335;28;20046;-79
2022/05/18 07:20:59;;;;;;;4.03;2.60;;;;;;;22.57;65.48;100174.09;4992045;28;20496;-81
2022/05/18 07:23:26;;;;;;;4.70;2.85;;;;;;;22.68;66.42;100171.28;4989485;28;20038;-81
2022/05/18 07:25:53;;;;;;;3.92;2.83;;;;;;;22.84;63.90;100179.78;4974522;28;20113;-80
2022/05/18 07:28:19;;;;;;;5.40;3.00;;;;;;;22.70;66.83;100169.47;4992007;28;20416;-81
2022/05/18 07:30:46;;;;;;;6.95;2.80;;;;;;;22.81;67.01;100178.97;4992053;28;20029;-81
2022/05/18 07:33:12;;;;;;;3.85;2.80;;;;;;;22.85;66.25;100164.84;4957172;28;20027;-80
2022/05/18 07:35:38;;;;;;;3.30;2.47;;;;;;;22.74;64.69;100138.72;4941031;28;20527;-83
2022/05/18 07:38:03;;;;;;;3.22;2.53;;;;;;;22.87;64.00;100170.94;4991460;28;20045;-82
2022/05/18 07:40:29;;;;;;;2.72;2.42;;;;;;;22.73;63.15;100140.50;4992005;28;20023;-81
2022/05/18 07:42:56;;;;;;;5.75;3.30;;;;;;;22.88;63.23;100172.66;4991530;28;20018;-79
2022/05/18 07:45:25;;;;;;;5.45;2.70;;;;;;;22.93;63.34;100153.25;4991621;28;20023;-80
2022/05/18 07:47:54;;;;;;;7.13;2.60;;;;;;;23.22;62.87;100172.06;4992038;28;20033;-81
2022/05/18 07:50:24;;;;;;;5.75;2.80;;;;;;;23.15;61.48;100179.16;4991083;28;20537;-81
2022/05/18 07:52:50;;;;;;;3.95;2.60;;;;;;;23.12;61.70;100173.13;4991858;28;20131;-81
2022/05/18 07:55:15;;;;;;;4.22;2.60;;;;;;;23.17;61.49;100163.38;4974093;28;20050;-82
2022/05/18 07:57:41;;;;;;;7.30;2.85;;;;;;;23.64;60.17;100172.06;4991447;28;20038;-82
2022/05/18 08:00:08;;;;;;;9.25;2.90;;;;;;;23.73;58.60;100169.19;4991851;28;20470;-80
2022/05/18 08:02:34;;;;;;;3.63;2.53;;;;;;;23.84;58.36;100137.34;4991495;28;20038;-84
2022/05/18 08:05:00;;;;;;;3.83;3.15;;;;;;;23.99;58.66;100156.34;4974172;28;20030;-76
2022/05/18 08:07:26;;;;;;;4.47;2.60;;;;;;;23.84;58.76;100174.25;4991972;28;20025;-77
2022/05/18 08:15:31;;;;;;;8.43;3.38;;;;;;;23.80;58.82;100150.63;4931423;29;20043;-77
2022/05/18 08:17:56;;;;;;;5.30;2.83;;;;;;;24.01;61.88;100170.38;4931292;29;20051;-74
2022/05/18 08:20:22;;;;;;;6.25;3.20;;;;;;;24.00;56.63;100135.25;4931281;29;20032;-77
2022/05/18 08:22:48;;;;;;;4.70;2.55;;;;;;;24.19;56.32;100147.97;4915315;29;20122;-78
2022/05/18 08:25:14;;;;;;;5.65;2.80;;;;;;;24.26;57.41;100168.00;4931320;29;20140;-77
2022/05/18 08:27:45;;;;;;;3.63;2.50;;;;;;;24.28;57.62;100165.34;4931365;29;20059;-77
2022/05/18 08:30:14;;;;;;;5.18;2.53;;;;;;;24.48;54.65;100152.50;4928436;29;20044;-77
2022/05/18 08:32:39;;;;;;;4.05;2.30;;;;;;;24.48;54.49;100168.34;4931269;29;20023;-78
2022/05/18 08:35:06;;;;;;;4.07;2.38;;;;;;;24.66;52.75;100159.13;4930134;29;20083;-75
2022/05/18 08:37:42;;;;;;;3.42;2.50;;;;;;;24.59;54.03;100149.59;4923377;29;20039;-78
2022/05/18 08:40:15;;;;;;;3.70;2.45;;;;;;;24.66;56.17;100177.59;4930776;29;20091;-75
2022/05/18 08:42:41;;;;;;;3.67;2.40;;;;;;;24.62;55.35;100173.25;4930603;29;20068;-78
2022/05/18 08:45:07;;;;;;;4.07;2.53;;;;;;;24.62;54.84;100170.63;4930684;29;20080;-78
2022/05/18 08:47:49;;;;;;;3.22;2.33;;;;;;;24.52;54.83;100177.06;4930051;29;20483;-78
2022/05/18 08:50:19;;;;;;;3.15;2.30;;;;;;;24.66;55.29;100176.72;4982487;28;20089;-79
2022/05/18 08:52:44;;;;;;;;;;;;;;;24.65;54.59;100175.88;4991263;28;20436;-77
2022/05/18 08:55:35;;;;;;;4.35;2.47;;;;;;;24.69;55.93;100176.66;4990906;28;19914;-78
2022/05/18 08:58:03;;;;;;;3.45;2.50;;;;;;;24.48;53.07;100146.38;4989145;28;20476;-79
2022/05/18 09:00:46;;;;;;;3.92;2.13;;;;;;;23.99;54.20;100069.34;4990836;28;20034;-79
2022/05/18 09:03:17;;;;;;;4.38;2.40;;;;;;;24.63;53.09;100188.19;4973414;28;20472;-79
2022/05/18 09:05:48;;;;;;;4.28;2.38;;;;;;;24.78;52.27;100178.19;4991170;28;20056;-77
2022/05/18 09:08:27;;;;;;;3.47;2.35;;;;;;;24.88;53.71;100198.13;4990647;28;20077;-79
2022/05/18 09:10:57;;;;;;;;;;;;;;;24.96;52.61;100198.81;4973622;28;20420;-78
2022/05/18 09:13:23;;;;;;;8.13;2.63;;;;;;;24.91;53.02;100192.78;4990450;28;19913;-78
2022/05/18 09:16:13;;;;;;;2.83;1.95;;;;;;;24.76;54.44;100193.19;4990921;28;20030;-78
2022/05/18 09:18:42;;;;;;;3.67;2.47;;;;;;;24.43;53.22;100143.00;4976673;28;20494;-85
2022/05/18 09:21:20;;;;;;;4.15;2.38;;;;;;;24.85;54.10;100203.53;4974778;28;20528;-80
2022/05/18 09:24:01;;;;;;;4.00;3.25;;;;;;;24.76;54.73;100212.56;4970731;28;20038;-81
2022/05/18 09:26:29;;;;;;;5.40;2.25;;;;;;;24.78;57.18;100221.28;4970167;28;20030;-83
2022/05/18 09:29:26;;;;;;;6.00;2.78;;;;;;;24.26;58.20;100230.47;4970593;28;20030;-81
2022/05/18 09:31:58;;;;;;;4.63;2.70;;;;;;;23.79;60.73;100254.31;4931837;29;20148;-83
2022/05/18 09:34:55;;;;;;;4.32;2.72;;;;;;;23.53;62.53;100261.88;4954936;29;20126;-77
2022/05/18 09:37:37;;;;;;;5.30;3.20;;;;;;;23.29;63.74;100255.31;4931786;29;20115;-77
2022/05/18 09:40:17;;;;;;;8.25;3.10;;;;;;;22.93;66.07;100240.13;4929854;29;20091;-79
2022/05/18 09:42:51;;;;;;;12.98;3.35;;;;;;;22.71;66.55;100252.78;4929675;29;20043;-81
2022/05/18 09:45:25;;;;;;;8.68;3.03;;;;;;;22.60;68.27;100268.78;4929447;29;20038;-83
2022/05/18 09:48:01;;;;;;;9.75;3.28;;;;;;;22.49;68.01;100294.34;4929891;29;20043;-85
2022/05/18 09:50:27;;;;;;;59.15;5.70;;;;;;;22.15;69.14;100329.00;4929517;29;20040;-86
2022/05/18 09:52:54;;;;;;;47.70;4.55;;;;;;;21.25;68.96;100300.25;4929512;29;20043;-88
2022/05/18 09:55:24;;;;;;;46.17;4.38;;;;;;;20.85;70.66;100310.19;4932110;29;20520;-74
2022/05/18 09:58:06;;;;;;;25.92;2.58;;;;;;;20.66;70.15;100303.31;4930129;29;20043;-80
2022/05/18 10:00:34;;;;;;;24.65;2.03;;;;;;;20.46;70.90;100346.28;4934234;29;20036;-83
2022/05/18 10:08:47;;;;;;;4.93;1.40;;;;;;;19.31;84.94;100342.28;4954518;28;20429;-80
2022/05/18 10:11:17;;;;;;;5.75;1.15;;;;;;;18.72;86.25;100356.16;4974696;28;20026;-80
2022/05/18 10:13:54;;;;;;;13.68;2.42;;;;;;;18.47;90.79;100411.88;4973156;28;20469;-78
2022/05/18 10:16:33;;;;;;;22.00;3.85;;;;;;;18.34;95.40;100416.19;4994074;28;20018;-78
2022/05/18 10:19:01;;;;;;;13.57;2.58;;;;;;;17.75;93.26;100390.59;4994280;28;20030;-83
2022/05/18 10:22:06;;;;;;;5.22;1.60;;;;;;;17.19;98.09;100428.47;4994192;28;20105;-84
2022/05/18 10:25:07;;;;;;;8.52;1.45;;;;;;;16.96;100.00;100436.94;4895742;29;20076;-78
2022/05/18 10:27:39;;;;;;;4.28;1.00;;;;;;;16.81;99.35;100447.19;4895467;29;20538;-83
2022/05/18 10:30:13;;;;;;;3.63;1.10;;;;;;;16.72;100.00;100463.56;4879931;29;20044;-83
2022/05/18 10:33:04;;;;;;;2.95;1.00;;;;;;;16.62;100.00;100479.97;4895351;29;20024;-83
2022/05/18 10:35:51;;;;;;;3.90;0.90;;;;;;;16.64;100.00;100488.69;4849035;29;20037;-79
2022/05/18 10:38:22;;;;;;;2.75;0.82;;;;;;;16.34;100.00;100449.22;4849529;29;20045;-79
2022/05/18 10:40:49;;;;;;;3.63;0.85;;;;;;;16.21;100.00;100436.03;4849425;29;20048;-85
2022/05/18 10:43:42;;;;;;;5.70;0.82;;;;;;;16.54;100.00;100505.09;4851638;29;20079;-85
2022/05/18 10:46:12;;;;;;;5.10;0.90;;;;;;;16.42;100.00;100493.63;4839169;29;20613;-81
2022/05/18 10:48:41;;;;;;;4.57;0.80;;;;;;;16.28;100.00;100498.63;4839292;29;20126;-86
2022/05/18 10:51:13;;;;;;;2.15;0.70;;;;;;;15.98;100.00;100473.03;4845436;29;20091;-81
2022/05/18 10:53:43;;;;;;;2.47;0.50;;;;;;;16.11;100.00;100544.41;4843626;29;20528;-79
2022/05/18 10:56:35;;;;;;;2.17;0.63;;;;;;;15.83;100.00;100559.59;4841733;29;20508;-80
2022/05/18 10:59:42;;;;;;;0.57;0.50;;;;;;;15.65;100.00;100566.22;4804076;29;20071;-80
2022/05/18 11:02:10;;;;;;;7.75;1.38;;;;;;;15.63;100.00;100606.06;4828849;29;20042;-79
2022/05/18 11:05:04;;;;;;;3.78;0.85;;;;;;;15.40;100.00;100592.63;4832841;29;20127;-79
2022/05/18 11:07:31;;;;;;;2.03;0.90;;;;;;;15.35;100.00;100564.78;4827491;29;20186;-78
2022/05/18 11:09:57;;;;;;;10.13;1.10;;;;;;;15.41;100.00;100573.56;4830929;29;20048;-77
2022/05/18 11:12:52;;;;;;;2.63;0.80;;;;;;;15.23;100.00;100582.75;4853008;29;20037;-77
2022/05/18 11:15:30;;;;;;;2.95;0.88;;;;;;;15.19;100.00;100584.44;4838108;29;20041;-79
2022/05/18 11:18:13;;;;;;;3.78;0.98;;;;;;;15.24;100.00;100592.31;4828768;29;20034;-77
2022/05/18 11:21:15;;;;;;;5.28;1.35;;;;;;;15.25;100.00;100598.41;4829381;29;20098;-78
2022/05/18 11:24:07;;;;;;;2.72;1.10;;;;;;;15.22;100.00;100624.34;4838253;29;20118;-75
2022/05/18 11:26:41;;;;;;;2.22;1.00;;;;;;;14.92;99.86;100628.06;4838022;29;20060;-77
2022/05/18 11:29:28;;;;;;;2.28;1.48;;;;;;;14.70;100.00;100643.16;4838994;29;20038;-78
2022/05/18 11:32:26;;;;;;;4.63;1.40;;;;;;;14.47;100.00;100648.69;4836466;29;20050;-86
2022/05/18 11:35:19;;;;;;;3.67;1.40;;;;;;;14.40;100.00;100639.88;4840859;29;20116;-83
2022/05/18 11:38:03;;;;;;;3.50;1.83;;;;;;;14.24;100.00;100642.91;4877536;29;20033;-80
2022/05/18 11:40:51;;;;;;;4.88;2.22;;;;;;;14.12;98.54;100643.50;4929856;29;20437;-78
2022/05/18 11:43:41;;;;;;;4.03;1.60;;;;;;;13.92;99.85;100653.38;4932367;29;20032;-78
2022/05/18 11:46:23;;;;;;;5.53;2.15;;;;;;;13.71;99.94;100641.56;4944988;29;20146;-79
2022/05/18 11:49:10;;;;;;;6.10;2.03;;;;;;;13.66;100.00;100669.13;4951060;29;20031;-78
2022/05/18 11:51:51;;;;;;;7.85;2.40;;;;;;;13.50;100.00;100682.50;4952854;28;20480;-78